sensor_id;sensor_type;location;lat;lon;timestamp;temperature;humidity
74661;SHT31;63191;39.566;2.654;2023-01-23T00:00:55;6.11;67.97
74661;SHT31;63191;39.566;2.654;2023-01-23T00:03:23;6.09;68.08
74661;SHT31;63191;39.566;2.654;2023-01-23T00:05:59;6.07;68.25
74661;SHT31;63191;39.566;2.654;2023-01-23T00:08:28;6.05;68.38
74661;SHT31;63191;39.566;2.654;2023-01-23T00:10:54;5.99;68.75
74661;SHT31;63191;39.566;2.654;2023-01-23T00:13:20;5.93;69.96
74661;SHT31;63191;39.566;2.654;2023-01-23T00:15:46;5.88;70.77
74661;SHT31;63191;39.566;2.654;2023-01-23T00:18:12;5.83;71.56
74661;SHT31;63191;39.566;2.654;2023-01-23T00:20:39;5.74;72.62
74661;SHT31;63191;39.566;2.654;2023-01-23T00:23:06;5.65;73.93
74661;SHT31;63191;39.566;2.654;2023-01-23T00:25:33;5.57;74.74
74661;SHT31;63191;39.566;2.654;2023-01-23T00:27:59;5.50;75.16
74661;SHT31;63191;39.566;2.654;2023-01-23T00:30:25;5.43;75.74
74661;SHT31;63191;39.566;2.654;2023-01-23T00:32:51;5.36;76.32
74661;SHT31;63191;39.566;2.654;2023-01-23T00:35:17;5.29;76.82
74661;SHT31;63191;39.566;2.654;2023-01-23T00:37:43;5.25;77.28
74661;SHT31;63191;39.566;2.654;2023-01-23T00:40:09;5.19;77.67
74661;SHT31;63191;39.566;2.654;2023-01-23T00:42:37;5.14;78.09
74661;SHT31;63191;39.566;2.654;2023-01-23T00:45:03;5.10;78.50
74661;SHT31;63191;39.566;2.654;2023-01-23T00:47:30;5.07;78.86
74661;SHT31;63191;39.566;2.654;2023-01-23T00:49:56;5.03;79.25
74661;SHT31;63191;39.566;2.654;2023-01-23T00:52:23;4.99;79.52
74661;SHT31;63191;39.566;2.654;2023-01-23T00:54:50;4.97;79.82
74661;SHT31;63191;39.566;2.654;2023-01-23T00:57:17;4.97;80.10
74661;SHT31;63191;39.566;2.654;2023-01-23T00:59:43;4.97;80.39
74661;SHT31;63191;39.566;2.654;2023-01-23T01:02:09;5.00;80.54
74661;SHT31;63191;39.566;2.654;2023-01-23T01:04:34;5.03;80.61
74661;SHT31;63191;39.566;2.654;2023-01-23T01:07:00;5.06;80.71
74661;SHT31;63191;39.566;2.654;2023-01-23T01:09:27;5.06;80.80
74661;SHT31;63191;39.566;2.654;2023-01-23T01:11:53;5.05;80.84
74661;SHT31;63191;39.566;2.654;2023-01-23T01:14:19;5.05;80.90
74661;SHT31;63191;39.566;2.654;2023-01-23T01:16:44;5.04;80.90
74661;SHT31;63191;39.566;2.654;2023-01-23T01:19:11;5.02;80.90
74661;SHT31;63191;39.566;2.654;2023-01-23T01:21:39;5.00;80.90
74661;SHT31;63191;39.566;2.654;2023-01-23T01:24:06;4.99;80.94
74661;SHT31;63191;39.566;2.654;2023-01-23T01:26:33;5.00;80.98
74661;SHT31;63191;39.566;2.654;2023-01-23T01:28:59;5.05;80.94
74661;SHT31;63191;39.566;2.654;2023-01-23T01:31:25;5.09;80.97
74661;SHT31;63191;39.566;2.654;2023-01-23T01:33:52;5.14;80.99
74661;SHT31;63191;39.566;2.654;2023-01-23T01:36:20;5.14;81.04
74661;SHT31;63191;39.566;2.654;2023-01-23T01:38:48;5.11;81.46
74661;SHT31;63191;39.566;2.654;2023-01-23T01:41:14;5.05;82.02
74661;SHT31;63191;39.566;2.654;2023-01-23T01:43:42;5.01;82.36
74661;SHT31;63191;39.566;2.654;2023-01-23T01:46:13;4.99;82.68
74661;SHT31;63191;39.566;2.654;2023-01-23T01:57:19;4.86;83.81
74661;SHT31;63191;39.566;2.654;2023-01-23T02:02:36;4.90;84.23
74661;SHT31;63191;39.566;2.654;2023-01-23T02:05:14;4.93;84.30
74661;SHT31;63191;39.566;2.654;2023-01-23T02:11:09;4.94;85.26
74661;SHT31;63191;39.566;2.654;2023-01-23T02:13:37;4.94;85.76
74661;SHT31;63191;39.566;2.654;2023-01-23T02:16:08;4.94;86.03
74661;SHT31;63191;39.566;2.654;2023-01-23T02:18:39;4.92;86.25
74661;SHT31;63191;39.566;2.654;2023-01-23T02:21:12;4.90;86.37
74661;SHT31;63191;39.566;2.654;2023-01-23T02:23:43;4.90;86.45
74661;SHT31;63191;39.566;2.654;2023-01-23T02:26:54;4.89;86.40
74661;SHT31;63191;39.566;2.654;2023-01-23T02:29:21;4.87;86.31
74661;SHT31;63191;39.566;2.654;2023-01-23T02:31:46;4.86;86.34
74661;SHT31;63191;39.566;2.654;2023-01-23T02:34:15;4.83;86.35
74661;SHT31;63191;39.566;2.654;2023-01-23T02:36:42;4.78;86.27
74661;SHT31;63191;39.566;2.654;2023-01-23T02:39:12;4.72;86.13
74661;SHT31;63191;39.566;2.654;2023-01-23T02:41:43;4.68;86.05
74661;SHT31;63191;39.566;2.654;2023-01-23T02:44:18;4.66;86.02
74661;SHT31;63191;39.566;2.654;2023-01-23T02:47:01;4.66;86.10
74661;SHT31;63191;39.566;2.654;2023-01-23T02:49:32;4.67;86.19
74661;SHT31;63191;39.566;2.654;2023-01-23T02:51:59;4.67;86.24
74661;SHT31;63191;39.566;2.654;2023-01-23T02:54:25;4.65;86.28
74661;SHT31;63191;39.566;2.654;2023-01-23T02:56:50;4.64;86.30
74661;SHT31;63191;39.566;2.654;2023-01-23T02:59:16;4.64;86.30
74661;SHT31;63191;39.566;2.654;2023-01-23T03:02:01;4.62;86.30
74661;SHT31;63191;39.566;2.654;2023-01-23T03:04:28;4.59;86.35
74661;SHT31;63191;39.566;2.654;2023-01-23T03:06:54;4.56;86.46
74661;SHT31;63191;39.566;2.654;2023-01-23T03:09:19;4.55;86.66
74661;SHT31;63191;39.566;2.654;2023-01-23T03:11:46;4.56;86.83
74661;SHT31;63191;39.566;2.654;2023-01-23T03:14:13;4.58;86.83
74661;SHT31;63191;39.566;2.654;2023-01-23T03:16:45;4.58;86.90
74661;SHT31;63191;39.566;2.654;2023-01-23T03:19:16;4.59;86.91
74661;SHT31;63191;39.566;2.654;2023-01-23T03:21:43;4.56;86.93
74661;SHT31;63191;39.566;2.654;2023-01-23T03:24:09;4.55;87.01
74661;SHT31;63191;39.566;2.654;2023-01-23T03:26:42;4.53;87.09
74661;SHT31;63191;39.566;2.654;2023-01-23T03:29:11;4.51;87.10
74661;SHT31;63191;39.566;2.654;2023-01-23T03:32:00;4.48;87.08
74661;SHT31;63191;39.566;2.654;2023-01-23T03:34:26;4.49;87.02
74661;SHT31;63191;39.566;2.654;2023-01-23T03:36:53;4.51;87.07
74661;SHT31;63191;39.566;2.654;2023-01-23T03:39:18;4.53;87.10
74661;SHT31;63191;39.566;2.654;2023-01-23T03:42:03;4.51;87.10
74661;SHT31;63191;39.566;2.654;2023-01-23T03:44:29;4.48;87.10
74661;SHT31;63191;39.566;2.654;2023-01-23T03:46:54;4.45;87.11
74661;SHT31;63191;39.566;2.654;2023-01-23T03:49:20;4.42;87.10
74661;SHT31;63191;39.566;2.654;2023-01-23T03:51:46;4.40;87.10
74661;SHT31;63191;39.566;2.654;2023-01-23T03:54:12;4.41;87.11
74661;SHT31;63191;39.566;2.654;2023-01-23T03:56:39;4.41;87.17
74661;SHT31;63191;39.566;2.654;2023-01-23T03:59:06;4.40;87.19
74661;SHT31;63191;39.566;2.654;2023-01-23T04:01:34;4.39;87.25
74661;SHT31;63191;39.566;2.654;2023-01-23T04:04:01;4.39;87.34
74661;SHT31;63191;39.566;2.654;2023-01-23T04:06:27;4.43;87.40
74661;SHT31;63191;39.566;2.654;2023-01-23T04:08:55;4.47;87.48
74661;SHT31;63191;39.566;2.654;2023-01-23T04:11:22;4.53;87.50
74661;SHT31;63191;39.566;2.654;2023-01-23T04:13:50;4.55;87.42
74661;SHT31;63191;39.566;2.654;2023-01-23T04:16:17;4.58;87.40
74661;SHT31;63191;39.566;2.654;2023-01-23T04:18:42;4.59;87.40
74661;SHT31;63191;39.566;2.654;2023-01-23T04:21:08;4.61;87.48
74661;SHT31;63191;39.566;2.654;2023-01-23T04:23:34;4.61;87.49
74661;SHT31;63191;39.566;2.654;2023-01-23T04:26:01;4.63;87.50
74661;SHT31;63191;39.566;2.654;2023-01-23T04:28:27;4.63;87.54
74661;SHT31;63191;39.566;2.654;2023-01-23T04:30:53;4.67;87.58
74661;SHT31;63191;39.566;2.654;2023-01-23T04:33:19;4.72;87.57
74661;SHT31;63191;39.566;2.654;2023-01-23T04:35:54;4.79;87.57
74661;SHT31;63191;39.566;2.654;2023-01-23T04:38:26;4.86;87.53
74661;SHT31;63191;39.566;2.654;2023-01-23T04:40:54;4.92;87.49
74661;SHT31;63191;39.566;2.654;2023-01-23T04:43:20;4.96;87.37
74661;SHT31;63191;39.566;2.654;2023-01-23T04:45:48;4.98;87.33
74661;SHT31;63191;39.566;2.654;2023-01-23T04:48:15;5.01;87.38
74661;SHT31;63191;39.566;2.654;2023-01-23T04:50:41;5.03;87.39
74661;SHT31;63191;39.566;2.654;2023-01-23T04:53:07;5.03;87.33
74661;SHT31;63191;39.566;2.654;2023-01-23T04:55:38;5.01;87.18
74661;SHT31;63191;39.566;2.654;2023-01-23T04:58:04;4.99;87.12
74661;SHT31;63191;39.566;2.654;2023-01-23T05:00:30;4.97;87.07
74661;SHT31;63191;39.566;2.654;2023-01-23T05:02:56;4.94;87.07
74661;SHT31;63191;39.566;2.654;2023-01-23T05:05:22;4.92;87.08
74661;SHT31;63191;39.566;2.654;2023-01-23T05:07:49;4.90;86.99
74661;SHT31;63191;39.566;2.654;2023-01-23T05:10:16;4.91;86.93
74661;SHT31;63191;39.566;2.654;2023-01-23T05:12:42;4.91;86.89
74661;SHT31;63191;39.566;2.654;2023-01-23T05:15:09;4.92;86.87
74661;SHT31;63191;39.566;2.654;2023-01-23T05:17:35;4.91;86.82
74661;SHT31;63191;39.566;2.654;2023-01-23T05:20:01;4.88;86.80
74661;SHT31;63191;39.566;2.654;2023-01-23T05:22:27;4.86;86.85
74661;SHT31;63191;39.566;2.654;2023-01-23T05:24:53;4.83;86.89
74661;SHT31;63191;39.566;2.654;2023-01-23T05:27:19;4.80;86.93
74661;SHT31;63191;39.566;2.654;2023-01-23T05:29:44;4.76;87.00
74661;SHT31;63191;39.566;2.654;2023-01-23T05:32:10;4.76;87.00
74661;SHT31;63191;39.566;2.654;2023-01-23T05:34:36;4.75;87.00
74661;SHT31;63191;39.566;2.654;2023-01-23T05:37:02;4.75;86.99
74661;SHT31;63191;39.566;2.654;2023-01-23T05:39:30;4.78;87.00
74661;SHT31;63191;39.566;2.654;2023-01-23T05:41:56;4.80;87.00
74661;SHT31;63191;39.566;2.654;2023-01-23T05:44:22;4.81;87.00
74661;SHT31;63191;39.566;2.654;2023-01-23T05:46:49;4.79;87.01
74661;SHT31;63191;39.566;2.654;2023-01-23T05:49:15;4.78;87.10
74661;SHT31;63191;39.566;2.654;2023-01-23T05:51:41;4.76;87.12
74661;SHT31;63191;39.566;2.654;2023-01-23T05:54:07;4.75;87.19
74661;SHT31;63191;39.566;2.654;2023-01-23T05:56:34;4.73;87.22
74661;SHT31;63191;39.566;2.654;2023-01-23T05:59:00;4.72;87.29
74661;SHT31;63191;39.566;2.654;2023-01-23T06:01:25;4.70;87.30
74661;SHT31;63191;39.566;2.654;2023-01-23T06:03:51;4.68;87.36
74661;SHT31;63191;39.566;2.654;2023-01-23T06:06:17;4.65;87.39
74661;SHT31;63191;39.566;2.654;2023-01-23T06:08:42;4.65;87.40
74661;SHT31;63191;39.566;2.654;2023-01-23T06:11:08;4.66;87.38
74661;SHT31;63191;39.566;2.654;2023-01-23T06:13:34;4.68;87.30
74661;SHT31;63191;39.566;2.654;2023-01-23T06:16:00;4.69;87.28
74661;SHT31;63191;39.566;2.654;2023-01-23T06:18:26;4.70;87.20
74661;SHT31;63191;39.566;2.654;2023-01-23T06:20:59;4.72;87.19
74661;SHT31;63191;39.566;2.654;2023-01-23T06:23:25;4.73;87.16
74661;SHT31;63191;39.566;2.654;2023-01-23T06:25:51;4.75;87.20
74661;SHT31;63191;39.566;2.654;2023-01-23T06:28:17;4.75;87.27
74661;SHT31;63191;39.566;2.654;2023-01-23T06:30:43;4.76;87.30
74661;SHT31;63191;39.566;2.654;2023-01-23T06:33:08;4.77;87.30
74661;SHT31;63191;39.566;2.654;2023-01-23T06:35:34;4.78;87.32
74661;SHT31;63191;39.566;2.654;2023-01-23T06:38:00;4.80;87.43
74661;SHT31;63191;39.566;2.654;2023-01-23T06:40:25;4.84;87.57
74661;SHT31;63191;39.566;2.654;2023-01-23T06:42:54;4.86;87.73
74661;SHT31;63191;39.566;2.654;2023-01-23T06:45:20;4.90;87.80
74661;SHT31;63191;39.566;2.654;2023-01-23T06:47:46;4.95;87.71
74661;SHT31;63191;39.566;2.654;2023-01-23T06:50:12;4.96;87.55
74661;SHT31;63191;39.566;2.654;2023-01-23T06:52:38;4.98;87.38
74661;SHT31;63191;39.566;2.654;2023-01-23T06:55:03;4.98;87.23
74661;SHT31;63191;39.566;2.654;2023-01-23T06:57:31;4.97;87.11
74661;SHT31;63191;39.566;2.654;2023-01-23T06:59:58;4.95;87.03
74661;SHT31;63191;39.566;2.654;2023-01-23T07:02:24;4.91;86.93
74661;SHT31;63191;39.566;2.654;2023-01-23T07:04:49;4.88;86.90
74661;SHT31;63191;39.566;2.654;2023-01-23T07:07:16;4.86;86.89
74661;SHT31;63191;39.566;2.654;2023-01-23T07:09:42;4.83;86.79
74661;SHT31;63191;39.566;2.654;2023-01-23T07:12:08;4.81;86.79
74661;SHT31;63191;39.566;2.654;2023-01-23T07:14:34;4.80;86.70
74661;SHT31;63191;39.566;2.654;2023-01-23T07:17:00;4.82;86.62
74661;SHT31;63191;39.566;2.654;2023-01-23T07:19:26;4.85;86.49
74661;SHT31;63191;39.566;2.654;2023-01-23T07:21:52;4.89;86.35
74661;SHT31;63191;39.566;2.654;2023-01-23T07:24:17;4.93;86.23
74661;SHT31;63191;39.566;2.654;2023-01-23T07:26:43;4.96;86.08
74661;SHT31;63191;39.566;2.654;2023-01-23T07:29:09;4.99;85.95
74661;SHT31;63191;39.566;2.654;2023-01-23T07:31:35;5.05;85.77
74661;SHT31;63191;39.566;2.654;2023-01-23T07:34:01;5.14;85.59
74661;SHT31;63191;39.566;2.654;2023-01-23T07:36:27;5.23;85.32
74661;SHT31;63191;39.566;2.654;2023-01-23T07:38:56;5.30;84.95
74661;SHT31;63191;39.566;2.654;2023-01-23T07:41:23;5.34;84.58
74661;SHT31;63191;39.566;2.654;2023-01-23T07:43:49;5.37;84.24
74661;SHT31;63191;39.566;2.654;2023-01-23T07:46:20;5.41;83.99
74661;SHT31;63191;39.566;2.654;2023-01-23T07:48:51;5.45;83.74
74661;SHT31;63191;39.566;2.654;2023-01-23T07:51:17;5.50;83.55
74661;SHT31;63191;39.566;2.654;2023-01-23T07:53:42;5.58;83.41
74661;SHT31;63191;39.566;2.654;2023-01-23T07:56:08;5.67;83.23
74661;SHT31;63191;39.566;2.654;2023-01-23T07:58:34;5.80;83.00
74661;SHT31;63191;39.566;2.654;2023-01-23T08:01:06;6.01;82.68
74661;SHT31;63191;39.566;2.654;2023-01-23T08:03:33;6.28;82.39
74661;SHT31;63191;39.566;2.654;2023-01-23T08:05:59;6.44;82.06
74661;SHT31;63191;39.566;2.654;2023-01-23T08:08:25;6.57;81.82
74661;SHT31;63191;39.566;2.654;2023-01-23T08:10:50;6.71;81.52
74661;SHT31;63191;39.566;2.654;2023-01-23T08:13:16;6.97;81.25
74661;SHT31;63191;39.566;2.654;2023-01-23T08:15:43;7.41;80.96
74661;SHT31;63191;39.566;2.654;2023-01-23T08:18:10;7.59;80.56
74661;SHT31;63191;39.566;2.654;2023-01-23T08:20:36;7.60;79.98
74661;SHT31;63191;39.566;2.654;2023-01-23T08:23:02;7.58;79.30
74661;SHT31;63191;39.566;2.654;2023-01-23T08:25:31;7.56;78.83
74661;SHT31;63191;39.566;2.654;2023-01-23T08:27:56;7.53;78.48
74661;SHT31;63191;39.566;2.654;2023-01-23T08:30:22;7.52;78.20
74661;SHT31;63191;39.566;2.654;2023-01-23T08:32:48;7.56;77.95
74661;SHT31;63191;39.566;2.654;2023-01-23T08:35:14;7.69;77.78
74661;SHT31;63191;39.566;2.654;2023-01-23T08:37:40;7.91;77.61
74661;SHT31;63191;39.566;2.654;2023-01-23T08:40:06;8.18;77.41
74661;SHT31;63191;39.566;2.654;2023-01-23T08:42:33;8.31;76.98
74661;SHT31;63191;39.566;2.654;2023-01-23T08:44:59;8.48;76.36
74661;SHT31;63191;39.566;2.654;2023-01-23T08:47:25;8.70;75.89
74661;SHT31;63191;39.566;2.654;2023-01-23T08:49:51;8.88;75.16
74661;SHT31;63191;39.566;2.654;2023-01-23T08:52:16;8.96;74.00
74661;SHT31;63191;39.566;2.654;2023-01-23T08:54:42;9.00;73.08
74661;SHT31;63191;39.566;2.654;2023-01-23T08:57:08;9.06;72.59
74661;SHT31;63191;39.566;2.654;2023-01-23T08:59:34;9.24;72.47
74661;SHT31;63191;39.566;2.654;2023-01-23T09:02:01;9.60;72.24
74661;SHT31;63191;39.566;2.654;2023-01-23T09:04:27;10.25;71.99
74661;SHT31;63191;39.566;2.654;2023-01-23T09:06:53;11.08;71.58
74661;SHT31;63191;39.566;2.654;2023-01-23T09:09:18;11.89;70.45
74661;SHT31;63191;39.566;2.654;2023-01-23T09:11:44;12.60;68.92
74661;SHT31;63191;39.566;2.654;2023-01-23T09:14:10;13.14;67.34
74661;SHT31;63191;39.566;2.654;2023-01-23T09:16:36;13.62;65.57
74661;SHT31;63191;39.566;2.654;2023-01-23T09:19:03;14.09;63.74
74661;SHT31;63191;39.566;2.654;2023-01-23T09:21:29;14.68;62.44
74661;SHT31;63191;39.566;2.654;2023-01-23T09:23:55;15.36;61.28
74661;SHT31;63191;39.566;2.654;2023-01-23T09:26:21;16.19;59.53
74661;SHT31;63191;39.566;2.654;2023-01-23T09:28:47;17.20;57.59
74661;SHT31;63191;39.566;2.654;2023-01-23T09:31:13;18.37;55.44
74661;SHT31;63191;39.566;2.654;2023-01-23T09:33:39;19.54;52.60
74661;SHT31;63191;39.566;2.654;2023-01-23T09:36:05;20.54;49.26
74661;SHT31;63191;39.566;2.654;2023-01-23T09:38:34;21.48;45.27
74661;SHT31;63191;39.566;2.654;2023-01-23T09:41:06;22.28;42.74
74661;SHT31;63191;39.566;2.654;2023-01-23T09:46:21;23.96;37.96
74661;SHT31;63191;39.566;2.654;2023-01-23T09:48:59;24.59;35.95
74661;SHT31;63191;39.566;2.654;2023-01-23T09:51:55;25.14;34.99
74661;SHT31;63191;39.566;2.654;2023-01-23T09:57:33;25.72;30.92
74661;SHT31;63191;39.566;2.654;2023-01-23T10:02:45;25.32;27.65
74661;SHT31;63191;39.566;2.654;2023-01-23T10:05:12;25.28;28.04
74661;SHT31;63191;39.566;2.654;2023-01-23T10:07:46;25.64;28.94
74661;SHT31;63191;39.566;2.654;2023-01-23T10:10:43;25.71;27.71
74661;SHT31;63191;39.566;2.654;2023-01-23T10:14:06;26.12;28.22
74661;SHT31;63191;39.566;2.654;2023-01-23T10:24:56;27.90;24.86
74661;SHT31;63191;39.566;2.654;2023-01-23T10:27:33;27.94;24.71
74661;SHT31;63191;39.566;2.654;2023-01-23T10:30:28;28.35;25.04
74661;SHT31;63191;39.566;2.654;2023-01-23T10:33:09;28.58;23.72
74661;SHT31;63191;39.566;2.654;2023-01-23T10:35:47;28.72;23.54
74661;SHT31;63191;39.566;2.654;2023-01-23T10:38:36;29.04;23.64
74661;SHT31;63191;39.566;2.654;2023-01-23T10:41:20;29.43;22.92
74661;SHT31;63191;39.566;2.654;2023-01-23T10:43:51;29.42;22.79
74661;SHT31;63191;39.566;2.654;2023-01-23T10:46:20;29.74;23.00
74661;SHT31;63191;39.566;2.654;2023-01-23T10:48:55;30.08;22.41
74661;SHT31;63191;39.566;2.654;2023-01-23T10:54:04;30.19;21.05
74661;SHT31;63191;39.566;2.654;2023-01-23T10:57:02;30.14;20.34
74661;SHT31;63191;39.566;2.654;2023-01-23T11:02:31;27.92;21.65
74661;SHT31;63191;39.566;2.654;2023-01-23T11:04:59;25.67;22.67
74661;SHT31;63191;39.566;2.654;2023-01-23T11:07:28;23.53;24.38
74661;SHT31;63191;39.566;2.654;2023-01-23T11:12:34;19.92;27.99
74661;SHT31;63191;39.566;2.654;2023-01-23T11:15:24;18.90;30.02
74661;SHT31;63191;39.566;2.654;2023-01-23T11:17:51;20.10;29.53
74661;SHT31;63191;39.566;2.654;2023-01-23T11:20:24;21.38;27.67
74661;SHT31;63191;39.566;2.654;2023-01-23T11:33:54;27.42;21.88
74661;SHT31;63191;39.566;2.654;2023-01-23T11:36:47;27.97;21.29
74661;SHT31;63191;39.566;2.654;2023-01-23T11:42:25;29.11;20.40
74661;SHT31;63191;39.566;2.654;2023-01-23T11:44:55;29.38;20.04
74661;SHT31;63191;39.566;2.654;2023-01-23T11:50:27;30.44;20.57
74661;SHT31;63191;39.566;2.654;2023-01-23T11:53:15;30.85;18.96
74661;SHT31;63191;39.566;2.654;2023-01-23T12:11:19;30.82;19.39
74661;SHT31;63191;39.566;2.654;2023-01-23T12:16:28;31.05;18.78
74661;SHT31;63191;39.566;2.654;2023-01-23T12:19:19;29.96;18.47
74661;SHT31;63191;39.566;2.654;2023-01-23T12:22:13;29.67;18.98
74661;SHT31;63191;39.566;2.654;2023-01-23T12:28:10;29.61;19.39
74661;SHT31;63191;39.566;2.654;2023-01-23T12:30:54;29.50;19.37
74661;SHT31;63191;39.566;2.654;2023-01-23T12:36:23;27.70;20.66
74661;SHT31;63191;39.566;2.654;2023-01-23T12:42:02;27.70;20.44
74661;SHT31;63191;39.566;2.654;2023-01-23T12:44:59;27.74;20.23
74661;SHT31;63191;39.566;2.654;2023-01-23T12:48:22;27.63;20.72
74661;SHT31;63191;39.566;2.654;2023-01-23T12:50:45;27.84;20.78
74661;SHT31;63191;39.566;2.654;2023-01-23T12:53:33;28.08;20.31
74661;SHT31;63191;39.566;2.654;2023-01-23T12:56:07;28.04;20.26
74661;SHT31;63191;39.566;2.654;2023-01-23T12:58:45;27.86;20.22
74661;SHT31;63191;39.566;2.654;2023-01-23T13:01:23;27.89;20.82
74661;SHT31;63191;39.566;2.654;2023-01-23T13:13:32;28.19;20.53
74661;SHT31;63191;39.566;2.654;2023-01-23T13:16:02;28.14;20.30
74661;SHT31;63191;39.566;2.654;2023-01-23T13:18:38;28.16;20.87
74661;SHT31;63191;39.566;2.654;2023-01-23T13:21:23;28.15;20.56
74661;SHT31;63191;39.566;2.654;2023-01-23T13:32:56;27.89;21.54
74661;SHT31;63191;39.566;2.654;2023-01-23T13:52:16;25.27;22.13
74661;SHT31;63191;39.566;2.654;2023-01-23T13:55:19;24.18;23.09
74661;SHT31;63191;39.566;2.654;2023-01-23T13:58:24;22.80;24.00
74661;SHT31;63191;39.566;2.654;2023-01-23T14:03:57;21.89;25.57
74661;SHT31;63191;39.566;2.654;2023-01-23T14:07:50;20.98;26.34
74661;SHT31;63191;39.566;2.654;2023-01-23T14:12:50;19.10;29.16
74661;SHT31;63191;39.566;2.654;2023-01-23T14:15:35;18.66;29.94
74661;SHT31;63191;39.566;2.654;2023-01-23T14:21:02;17.58;32.40
74661;SHT31;63191;39.566;2.654;2023-01-23T14:23:33;16.70;36.10
74661;SHT31;63191;39.566;2.654;2023-01-23T14:26:08;15.68;38.00
74661;SHT31;63191;39.566;2.654;2023-01-23T14:28:58;14.78;40.37
74661;SHT31;63191;39.566;2.654;2023-01-23T14:31:32;13.80;42.70
74661;SHT31;63191;39.566;2.654;2023-01-23T14:34:04;12.90;44.93
74661;SHT31;63191;39.566;2.654;2023-01-23T14:36:46;12.03;48.12
74661;SHT31;63191;39.566;2.654;2023-01-23T14:39:21;11.24;50.53
74661;SHT31;63191;39.566;2.654;2023-01-23T14:41:52;10.52;52.55
74661;SHT31;63191;39.566;2.654;2023-01-23T14:44:23;9.95;54.80
74661;SHT31;63191;39.566;2.654;2023-01-23T14:46:54;9.44;56.36
74661;SHT31;63191;39.566;2.654;2023-01-23T14:49:25;8.99;58.12
74661;SHT31;63191;39.566;2.654;2023-01-23T14:51:58;8.58;59.79
74661;SHT31;63191;39.566;2.654;2023-01-23T14:54:28;8.23;60.93
74661;SHT31;63191;39.566;2.654;2023-01-23T14:56:55;7.97;62.29
74661;SHT31;63191;39.566;2.654;2023-01-23T14:59:27;7.71;64.56
74661;SHT31;63191;39.566;2.654;2023-01-23T15:01:58;7.50;66.39
74661;SHT31;63191;39.566;2.654;2023-01-23T15:04:27;7.32;67.63
74661;SHT31;63191;39.566;2.654;2023-01-23T15:06:56;7.24;68.76
74661;SHT31;63191;39.566;2.654;2023-01-23T15:09:32;7.22;69.90
74661;SHT31;63191;39.566;2.654;2023-01-23T15:12:05;7.18;70.74
74661;SHT31;63191;39.566;2.654;2023-01-23T15:14:39;7.19;71.56
74661;SHT31;63191;39.566;2.654;2023-01-23T15:17:17;7.25;72.22
74661;SHT31;63191;39.566;2.654;2023-01-23T15:19:48;7.29;72.70
74661;SHT31;63191;39.566;2.654;2023-01-23T15:22:19;7.30;73.00
74661;SHT31;63191;39.566;2.654;2023-01-23T15:24:50;7.30;73.39
74661;SHT31;63191;39.566;2.654;2023-01-23T15:27:33;7.30;74.03
74661;SHT31;63191;39.566;2.654;2023-01-23T15:32:58;7.26;74.81
74661;SHT31;63191;39.566;2.654;2023-01-23T15:35:33;7.27;75.14
74661;SHT31;63191;39.566;2.654;2023-01-23T15:38:04;7.29;75.42
74661;SHT31;63191;39.566;2.654;2023-01-23T15:40:31;7.32;75.72
74661;SHT31;63191;39.566;2.654;2023-01-23T15:43:09;7.30;75.88
74661;SHT31;63191;39.566;2.654;2023-01-23T15:45:40;7.27;76.15
74661;SHT31;63191;39.566;2.654;2023-01-23T15:48:05;7.24;76.43
74661;SHT31;63191;39.566;2.654;2023-01-23T15:50:33;7.20;76.50
74661;SHT31;63191;39.566;2.654;2023-01-23T15:52:59;7.11;76.51
74661;SHT31;63191;39.566;2.654;2023-01-23T15:55:25;7.06;76.68
74661;SHT31;63191;39.566;2.654;2023-01-23T15:57:53;7.00;76.97
74661;SHT31;63191;39.566;2.654;2023-01-23T16:00:20;6.96;77.21
74661;SHT31;63191;39.566;2.654;2023-01-23T16:02:50;6.90;77.41
74661;SHT31;63191;39.566;2.654;2023-01-23T16:05:18;6.87;77.73
74661;SHT31;63191;39.566;2.654;2023-01-23T16:07:45;6.87;78.10
74661;SHT31;63191;39.566;2.654;2023-01-23T16:10:19;6.90;78.40
74661;SHT31;63191;39.566;2.654;2023-01-23T16:12:48;6.96;78.69
74661;SHT31;63191;39.566;2.654;2023-01-23T16:15:17;6.99;78.96
74661;SHT31;63191;39.566;2.654;2023-01-23T16:17:47;7.01;79.10
74661;SHT31;63191;39.566;2.654;2023-01-23T16:20:15;6.99;79.04
74661;SHT31;63191;39.566;2.654;2023-01-23T16:22:52;6.98;79.13
74661;SHT31;63191;39.566;2.654;2023-01-23T16:25:45;6.96;79.23
74661;SHT31;63191;39.566;2.654;2023-01-23T16:28:12;6.93;79.28
74661;SHT31;63191;39.566;2.654;2023-01-23T16:30:40;6.88;79.33
74661;SHT31;63191;39.566;2.654;2023-01-23T16:33:06;6.85;79.52
74661;SHT31;63191;39.566;2.654;2023-01-23T16:35:32;6.83;79.66
74661;SHT31;63191;39.566;2.654;2023-01-23T16:37:58;6.84;79.83
74661;SHT31;63191;39.566;2.654;2023-01-23T16:40:25;6.83;80.00
74661;SHT31;63191;39.566;2.654;2023-01-23T16:42:54;6.82;80.03
74661;SHT31;63191;39.566;2.654;2023-01-23T16:45:22;6.82;80.04
74661;SHT31;63191;39.566;2.654;2023-01-23T16:47:53;6.82;80.01
74661;SHT31;63191;39.566;2.654;2023-01-23T16:50:20;6.84;79.87
74661;SHT31;63191;39.566;2.654;2023-01-23T16:52:59;6.83;79.59
74661;SHT31;63191;39.566;2.654;2023-01-23T16:55:35;6.82;79.44
74661;SHT31;63191;39.566;2.654;2023-01-23T16:58:05;6.78;79.29
74661;SHT31;63191;39.566;2.654;2023-01-23T17:00:34;6.74;79.21
74661;SHT31;63191;39.566;2.654;2023-01-23T17:03:01;6.70;79.16
74661;SHT31;63191;39.566;2.654;2023-01-23T17:05:32;6.66;79.03
74661;SHT31;63191;39.566;2.654;2023-01-23T17:07:58;6.61;78.85
74661;SHT31;63191;39.566;2.654;2023-01-23T17:10:24;6.58;78.71
74661;SHT31;63191;39.566;2.654;2023-01-23T17:12:52;6.57;78.64
74661;SHT31;63191;39.566;2.654;2023-01-23T17:15:30;6.57;78.57
74661;SHT31;63191;39.566;2.654;2023-01-23T17:17:56;6.54;78.48
74661;SHT31;63191;39.566;2.654;2023-01-23T17:20:25;6.51;78.40
74661;SHT31;63191;39.566;2.654;2023-01-23T17:22:55;6.47;78.32
74661;SHT31;63191;39.566;2.654;2023-01-23T17:25:25;6.45;78.30
74661;SHT31;63191;39.566;2.654;2023-01-23T17:27:53;6.44;78.24
74661;SHT31;63191;39.566;2.654;2023-01-23T17:30:19;6.42;78.19
74661;SHT31;63191;39.566;2.654;2023-01-23T17:32:52;6.41;78.04
74661;SHT31;63191;39.566;2.654;2023-01-23T17:35:24;6.41;77.90
74661;SHT31;63191;39.566;2.654;2023-01-23T17:37:58;6.43;77.72
74661;SHT31;63191;39.566;2.654;2023-01-23T17:40:25;6.45;77.60
74661;SHT31;63191;39.566;2.654;2023-01-23T17:42:55;6.45;77.60
74661;SHT31;63191;39.566;2.654;2023-01-23T17:45:21;6.44;77.62
74661;SHT31;63191;39.566;2.654;2023-01-23T17:47:50;6.44;77.68
74661;SHT31;63191;39.566;2.654;2023-01-23T17:50:22;6.45;77.72
74661;SHT31;63191;39.566;2.654;2023-01-23T17:52:51;6.45;77.73
74661;SHT31;63191;39.566;2.654;2023-01-23T17:55:18;6.45;77.80
74661;SHT31;63191;39.566;2.654;2023-01-23T17:57:48;6.44;77.84
74661;SHT31;63191;39.566;2.654;2023-01-23T18:00:15;6.42;77.84
74661;SHT31;63191;39.566;2.654;2023-01-23T18:02:43;6.41;77.82
74661;SHT31;63191;39.566;2.654;2023-01-23T18:05:11;6.38;77.78
74661;SHT31;63191;39.566;2.654;2023-01-23T18:07:38;6.34;77.70
74661;SHT31;63191;39.566;2.654;2023-01-23T18:10:05;6.30;77.70
74661;SHT31;63191;39.566;2.654;2023-01-23T18:12:40;6.27;77.70